sensor_id;sensor_type;location;lat;lon;timestamp;P1;durP1;ratioP1;P2;durP2;ratioP2
47958;SDS011;33718;50.910;-1.514;2022-09-03T00:00:13;5.43;;;3.28;;
47958;SDS011;33718;50.910;-1.514;2022-09-03T00:02:18;4.82;;;4.30;;
47958;SDS011;33718;50.910;-1.514;2022-09-03T00:04:27;4.68;;;4.10;;
47958;SDS011;33718;50.910;-1.514;2022-09-03T00:09:04;6.25;;;5.43;;
47958;SDS011;33718;50.910;-1.514;2022-09-03T00:11:18;5.70;;;4.85;;
47958;SDS011;33718;50.910;-1.514;2022-09-03T00:13:23;5.13;;;4.63;;
47958;SDS011;33718;50.910;-1.514;2022-09-03T00:15:26;4.45;;;4.00;;
47958;SDS011;33718;50.910;-1.514;2022-09-03T00:17:32;5.45;;;4.90;;
47958;SDS011;33718;50.910;-1.514;2022-09-03T00:19:36;4.63;;;4.22;;
47958;SDS011;33718;50.910;-1.514;2022-09-03T00:21:41;3.78;;;3.47;;
47958;SDS011;33718;50.910;-1.514;2022-09-03T00:23:44;4.70;;;4.30;;
47958;SDS011;33718;50.910;-1.514;2022-09-03T00:27:50;4.07;;;3.75;;
47958;SDS011;33718;50.910;-1.514;2022-09-03T00:30:05;6.88;;;5.80;;
47958;SDS011;33718;50.910;-1.514;2022-09-03T00:32:12;5.15;;;4.60;;
47958;SDS011;33718;50.910;-1.514;2022-09-03T00:36:27;9.15;;;5.10;;
47958;SDS011;33718;50.910;-1.514;2022-09-03T00:38:37;3.33;;;3.10;;
47958;SDS011;33718;50.910;-1.514;2022-09-03T00:43:22;2.78;;;2.58;;
47958;SDS011;33718;50.910;-1.514;2022-09-03T00:45:35;2.28;;;2.17;;
47958;SDS011;33718;50.910;-1.514;2022-09-03T00:50:08;1.95;;;1.73;;
47958;SDS011;33718;50.910;-1.514;2022-09-03T00:56:51;4.57;;;2.65;;
47958;SDS011;33718;50.910;-1.514;2022-09-03T01:01:13;3.30;;;3.00;;
47958;SDS011;33718;50.910;-1.514;2022-09-03T01:08:05;3.50;;;3.20;;
47958;SDS011;33718;50.910;-1.514;2022-09-03T01:12:34;5.82;;;2.83;;
47958;SDS011;33718;50.910;-1.514;2022-09-03T01:14:51;2.38;;;2.15;;
47958;SDS011;33718;50.910;-1.514;2022-09-03T01:27:45;3.30;;;3.00;;
47958;SDS011;33718;50.910;-1.514;2022-09-03T01:30:32;4.93;;;3.35;;
47958;SDS011;33718;50.910;-1.514;2022-09-03T01:32:22;3.30;;;3.05;;
47958;SDS011;33718;50.910;-1.514;2022-09-03T01:36:47;3.25;;;2.83;;
47958;SDS011;33718;50.910;-1.514;2022-09-03T01:38:52;3.00;;;2.80;;
47958;SDS011;33718;50.910;-1.514;2022-09-03T01:41:17;3.85;;;2.50;;
47958;SDS011;33718;50.910;-1.514;2022-09-03T01:43:43;2.72;;;2.53;;
47958;SDS011;33718;50.910;-1.514;2022-09-03T01:45:52;3.30;;;3.00;;
47958;SDS011;33718;50.910;-1.514;2022-09-03T01:50:15;3.95;;;3.15;;
47958;SDS011;33718;50.910;-1.514;2022-09-03T01:53:04;3.50;;;3.20;;
47958;SDS011;33718;50.910;-1.514;2022-09-03T01:57:42;4.25;;;3.85;;
47958;SDS011;33718;50.910;-1.514;2022-09-03T01:59:42;4.40;;;3.33;;
47958;SDS011;33718;50.910;-1.514;2022-09-03T02:02:04;4.85;;;3.28;;
47958;SDS011;33718;50.910;-1.514;2022-09-03T02:04:15;3.00;;;2.70;;
47958;SDS011;33718;50.910;-1.514;2022-09-03T02:06:18;8.20;;;3.22;;
47958;SDS011;33718;50.910;-1.514;2022-09-03T02:08:21;3.53;;;3.22;;
47958;SDS011;33718;50.910;-1.514;2022-09-03T02:10:26;6.68;;;2.42;;
47958;SDS011;33718;50.910;-1.514;2022-09-03T02:12:31;2.53;;;2.08;;
47958;SDS011;33718;50.910;-1.514;2022-09-03T02:14:34;2.27;;;2.17;;
47958;SDS011;33718;50.910;-1.514;2022-09-03T02:16:36;4.03;;;3.53;;
47958;SDS011;33718;50.910;-1.514;2022-09-03T02:18:40;8.77;;;3.28;;
47958;SDS011;33718;50.910;-1.514;2022-09-03T02:20:42;3.78;;;3.40;;
47958;SDS011;33718;50.910;-1.514;2022-09-03T02:22:44;3.22;;;2.97;;
47958;SDS011;33718;50.910;-1.514;2022-09-03T02:24:46;10.25;;;2.92;;
47958;SDS011;33718;50.910;-1.514;2022-09-03T02:26:47;2.88;;;2.58;;
47958;SDS011;33718;50.910;-1.514;2022-09-03T02:28:49;3.17;;;2.97;;
47958;SDS011;33718;50.910;-1.514;2022-09-03T02:30:51;7.82;;;3.28;;
47958;SDS011;33718;50.910;-1.514;2022-09-03T02:32:53;4.85;;;3.53;;
47958;SDS011;33718;50.910;-1.514;2022-09-03T02:34:54;3.38;;;3.08;;
47958;SDS011;33718;50.910;-1.514;2022-09-03T02:36:56;3.78;;;3.47;;
47958;SDS011;33718;50.910;-1.514;2022-09-03T02:38:58;4.65;;;2.88;;
47958;SDS011;33718;50.910;-1.514;2022-09-03T02:40:59;3.75;;;3.38;;
47958;SDS011;33718;50.910;-1.514;2022-09-03T02:43:02;6.22;;;3.03;;
47958;SDS011;33718;50.910;-1.514;2022-09-03T02:45:23;3.45;;;3.15;;
47958;SDS011;33718;50.910;-1.514;2022-09-03T02:47:27;3.67;;;3.38;;
47958;SDS011;33718;50.910;-1.514;2022-09-03T02:49:32;4.78;;;3.47;;
47958;SDS011;33718;50.910;-1.514;2022-09-03T02:51:40;5.00;;;4.00;;
47958;SDS011;33718;50.910;-1.514;2022-09-03T02:53:42;17.95;;;5.30;;
47958;SDS011;33718;50.910;-1.514;2022-09-03T02:55:44;22.00;;;6.05;;
47958;SDS011;33718;50.910;-1.514;2022-09-03T02:57:46;19.90;;;6.75;;
47958;SDS011;33718;50.910;-1.514;2022-09-03T02:59:48;16.50;;;5.32;;
47958;SDS011;33718;50.910;-1.514;2022-09-03T03:01:50;7.65;;;5.85;;
47958;SDS011;33718;50.910;-1.514;2022-09-03T03:03:51;10.77;;;5.63;;
47958;SDS011;33718;50.910;-1.514;2022-09-03T03:05:54;10.40;;;6.53;;
47958;SDS011;33718;50.910;-1.514;2022-09-03T03:07:57;9.32;;;6.07;;
47958;SDS011;33718;50.910;-1.514;2022-09-03T03:09:58;8.73;;;6.03;;
47958;SDS011;33718;50.910;-1.514;2022-09-03T03:12:00;9.70;;;6.30;;
47958;SDS011;33718;50.910;-1.514;2022-09-03T03:14:02;10.57;;;6.30;;
47958;SDS011;33718;50.910;-1.514;2022-09-03T03:16:04;6.90;;;5.78;;
47958;SDS011;33718;50.910;-1.514;2022-09-03T03:18:09;7.78;;;6.15;;
47958;SDS011;33718;50.910;-1.514;2022-09-03T03:20:12;6.13;;;4.60;;
47958;SDS011;33718;50.910;-1.514;2022-09-03T03:22:14;10.82;;;5.57;;
47958;SDS011;33718;50.910;-1.514;2022-09-03T03:24:15;8.65;;;6.35;;
47958;SDS011;33718;50.910;-1.514;2022-09-03T03:26:18;9.18;;;6.20;;
47958;SDS011;33718;50.910;-1.514;2022-09-03T03:28:19;10.00;;;6.25;;
47958;SDS011;33718;50.910;-1.514;2022-09-03T03:30:21;9.27;;;5.97;;
47958;SDS011;33718;50.910;-1.514;2022-09-03T03:32:23;6.43;;;5.53;;
47958;SDS011;33718;50.910;-1.514;2022-09-03T03:34:25;8.63;;;5.93;;
47958;SDS011;33718;50.910;-1.514;2022-09-03T03:36:28;7.03;;;6.32;;
47958;SDS011;33718;50.910;-1.514;2022-09-03T03:38:30;7.32;;;6.57;;
47958;SDS011;33718;50.910;-1.514;2022-09-03T03:40:33;8.23;;;5.75;;
47958;SDS011;33718;50.910;-1.514;2022-09-03T03:42:46;8.63;;;5.97;;
47958;SDS011;33718;50.910;-1.514;2022-09-03T03:44:58;12.07;;;5.20;;
47958;SDS011;33718;50.910;-1.514;2022-09-03T03:47:11;9.25;;;6.03;;
47958;SDS011;33718;50.910;-1.514;2022-09-03T03:49:24;7.43;;;6.15;;
47958;SDS011;33718;50.910;-1.514;2022-09-03T03:51:35;8.10;;;5.75;;
47958;SDS011;33718;50.910;-1.514;2022-09-03T03:53:45;7.68;;;6.15;;
47958;SDS011;33718;50.910;-1.514;2022-09-03T03:55:55;6.20;;;5.60;;
47958;SDS011;33718;50.910;-1.514;2022-09-03T03:58:04;8.35;;;5.97;;
47958;SDS011;33718;50.910;-1.514;2022-09-03T04:00:14;7.22;;;6.35;;
47958;SDS011;33718;50.910;-1.514;2022-09-03T04:02:26;8.57;;;6.05;;
47958;SDS011;33718;50.910;-1.514;2022-09-03T04:04:40;8.05;;;5.90;;
47958;SDS011;33718;50.910;-1.514;2022-09-03T04:06:42;6.70;;;5.43;;
47958;SDS011;33718;50.910;-1.514;2022-09-03T04:08:44;12.45;;;6.25;;
47958;SDS011;33718;50.910;-1.514;2022-09-03T04:10:46;6.55;;;5.65;;
47958;SDS011;33718;50.910;-1.514;2022-09-03T04:12:49;9.38;;;6.55;;
47958;SDS011;33718;50.910;-1.514;2022-09-03T04:14:54;7.50;;;6.80;;
47958;SDS011;33718;50.910;-1.514;2022-09-03T04:16:55;7.95;;;6.50;;
47958;SDS011;33718;50.910;-1.514;2022-09-03T04:18:57;7.95;;;6.88;;
47958;SDS011;33718;50.910;-1.514;2022-09-03T04:21:00;6.63;;;5.85;;
47958;SDS011;33718;50.910;-1.514;2022-09-03T04:23:04;8.65;;;6.35;;
47958;SDS011;33718;50.910;-1.514;2022-09-03T04:25:06;9.45;;;6.65;;
47958;SDS011;33718;50.910;-1.514;2022-09-03T04:27:08;9.93;;;6.57;;
47958;SDS011;33718;50.910;-1.514;2022-09-03T04:29:09;9.85;;;7.05;;
47958;SDS011;33718;50.910;-1.514;2022-09-03T04:31:12;10.98;;;7.85;;
47958;SDS011;33718;50.910;-1.514;2022-09-03T04:33:14;12.45;;;8.73;;
47958;SDS011;33718;50.910;-1.514;2022-09-03T04:35:16;12.40;;;8.60;;
47958;SDS011;33718;50.910;-1.514;2022-09-03T04:37:18;10.75;;;8.27;;
47958;SDS011;33718;50.910;-1.514;2022-09-03T04:39:20;14.95;;;9.18;;
47958;SDS011;33718;50.910;-1.514;2022-09-03T04:41:26;22.88;;;11.75;;
47958;SDS011;33718;50.910;-1.514;2022-09-03T04:43:28;28.70;;;12.05;;
47958;SDS011;33718;50.910;-1.514;2022-09-03T04:45:29;80.28;;;13.40;;
47958;SDS011;33718;50.910;-1.514;2022-09-03T04:47:31;71.55;;;16.25;;
47958;SDS011;33718;50.910;-1.514;2022-09-03T04:49:33;73.85;;;14.88;;
47958;SDS011;33718;50.910;-1.514;2022-09-03T04:51:35;92.60;;;16.52;;
47958;SDS011;33718;50.910;-1.514;2022-09-03T04:53:40;130.32;;;20.17;;
47958;SDS011;33718;50.910;-1.514;2022-09-03T04:55:42;228.77;;;23.15;;
47958;SDS011;33718;50.910;-1.514;2022-09-03T04:57:43;107.68;;;22.27;;
47958;SDS011;33718;50.910;-1.514;2022-09-03T04:59:45;88.55;;;21.48;;
47958;SDS011;33718;50.910;-1.514;2022-09-03T05:01:46;72.00;;;18.63;;
47958;SDS011;33718;50.910;-1.514;2022-09-03T05:03:48;64.97;;;16.40;;
47958;SDS011;33718;50.910;-1.514;2022-09-03T05:07:56;42.60;;;16.75;;
47958;SDS011;33718;50.910;-1.514;2022-09-03T05:09:58;98.93;;;17.30;;
47958;SDS011;33718;50.910;-1.514;2022-09-03T05:11:59;46.65;;;17.42;;
47958;SDS011;33718;50.910;-1.514;2022-09-03T05:14:01;48.60;;;15.85;;
47958;SDS011;33718;50.910;-1.514;2022-09-03T05:16:04;43.92;;;14.07;;
47958;SDS011;33718;50.910;-1.514;2022-09-03T05:18:07;32.78;;;15.10;;
47958;SDS011;33718;50.910;-1.514;2022-09-03T05:20:08;32.90;;;16.98;;
47958;SDS011;33718;50.910;-1.514;2022-09-03T05:22:10;33.42;;;16.25;;
47958;SDS011;33718;50.910;-1.514;2022-09-03T05:24:12;27.40;;;15.50;;
47958;SDS011;33718;50.910;-1.514;2022-09-03T05:26:16;27.83;;;15.52;;
47958;SDS011;33718;50.910;-1.514;2022-09-03T05:28:18;31.63;;;17.55;;
47958;SDS011;33718;50.910;-1.514;2022-09-03T05:30:19;36.90;;;18.52;;
47958;SDS011;33718;50.910;-1.514;2022-09-03T05:32:23;32.28;;;17.65;;
47958;SDS011;33718;50.910;-1.514;2022-09-03T05:34:25;28.50;;;15.25;;
47958;SDS011;33718;50.910;-1.514;2022-09-03T05:36:29;30.33;;;16.33;;
47958;SDS011;33718;50.910;-1.514;2022-09-03T05:38:31;32.40;;;17.47;;
47958;SDS011;33718;50.910;-1.514;2022-09-03T05:40:33;30.67;;;15.90;;
47958;SDS011;33718;50.910;-1.514;2022-09-03T05:42:34;29.40;;;16.92;;
47958;SDS011;33718;50.910;-1.514;2022-09-03T05:44:38;29.25;;;18.20;;
47958;SDS011;33718;50.910;-1.514;2022-09-03T05:46:39;30.48;;;16.52;;
47958;SDS011;33718;50.910;-1.514;2022-09-03T05:48:41;30.40;;;17.00;;
47958;SDS011;33718;50.910;-1.514;2022-09-03T05:50:43;29.42;;;17.60;;
47958;SDS011;33718;50.910;-1.514;2022-09-03T05:52:44;27.95;;;15.95;;
47958;SDS011;33718;50.910;-1.514;2022-09-03T05:54:46;29.48;;;16.65;;
47958;SDS011;33718;50.910;-1.514;2022-09-03T05:56:48;34.00;;;17.13;;
47958;SDS011;33718;50.910;-1.514;2022-09-03T05:58:51;30.80;;;17.92;;
47958;SDS011;33718;50.910;-1.514;2022-09-03T06:00:53;28.25;;;16.83;;
47958;SDS011;33718;50.910;-1.514;2022-09-03T06:02:54;27.83;;;16.52;;
47958;SDS011;33718;50.910;-1.514;2022-09-03T06:04:56;30.75;;;16.50;;
47958;SDS011;33718;50.910;-1.514;2022-09-03T06:06:58;33.03;;;18.52;;
47958;SDS011;33718;50.910;-1.514;2022-09-03T06:09:01;37.53;;;18.23;;
47958;SDS011;33718;50.910;-1.514;2022-09-03T06:11:03;31.45;;;18.52;;
47958;SDS011;33718;50.910;-1.514;2022-09-03T06:13:05;29.85;;;17.48;;
47958;SDS011;33718;50.910;-1.514;2022-09-03T06:15:07;27.58;;;15.70;;
47958;SDS011;33718;50.910;-1.514;2022-09-03T06:17:08;28.13;;;16.25;;
47958;SDS011;33718;50.910;-1.514;2022-09-03T06:19:11;27.60;;;16.40;;
47958;SDS011;33718;50.910;-1.514;2022-09-03T06:21:14;26.13;;;17.02;;
47958;SDS011;33718;50.910;-1.514;2022-09-03T06:23:16;31.05;;;17.63;;
47958;SDS011;33718;50.910;-1.514;2022-09-03T06:25:18;30.50;;;16.35;;
47958;SDS011;33718;50.910;-1.514;2022-09-03T06:27:20;30.30;;;18.08;;
47958;SDS011;33718;50.910;-1.514;2022-09-03T06:29:22;25.38;;;15.52;;
47958;SDS011;33718;50.910;-1.514;2022-09-03T06:31:23;22.85;;;15.80;;
47958;SDS011;33718;50.910;-1.514;2022-09-03T06:33:25;26.42;;;16.63;;
47958;SDS011;33718;50.910;-1.514;2022-09-03T06:35:27;25.98;;;16.33;;
47958;SDS011;33718;50.910;-1.514;2022-09-03T06:37:31;24.27;;;16.02;;
47958;SDS011;33718;50.910;-1.514;2022-09-03T06:39:33;23.35;;;16.38;;
47958;SDS011;33718;50.910;-1.514;2022-09-03T06:41:34;22.42;;;14.85;;
47958;SDS011;33718;50.910;-1.514;2022-09-03T06:43:37;23.25;;;16.05;;
47958;SDS011;33718;50.910;-1.514;2022-09-03T06:45:39;21.65;;;14.93;;
47958;SDS011;33718;50.910;-1.514;2022-09-03T06:49:54;20.60;;;15.88;;
47958;SDS011;33718;50.910;-1.514;2022-09-03T06:52:06;21.73;;;15.18;;
47958;SDS011;33718;50.910;-1.514;2022-09-03T06:54:16;21.08;;;14.65;;
47958;SDS011;33718;50.910;-1.514;2022-09-03T06:56:26;19.75;;;15.80;;
47958;SDS011;33718;50.910;-1.514;2022-09-03T06:58:46;18.58;;;14.52;;
47958;SDS011;33718;50.910;-1.514;2022-09-03T07:01:03;19.02;;;14.73;;
47958;SDS011;33718;50.910;-1.514;2022-09-03T07:03:15;21.92;;;15.43;;
47958;SDS011;33718;50.910;-1.514;2022-09-03T07:05:28;16.77;;;13.85;;
47958;SDS011;33718;50.910;-1.514;2022-09-03T07:07:42;19.10;;;14.43;;
47958;SDS011;33718;50.910;-1.514;2022-09-03T07:09:53;15.65;;;12.77;;
47958;SDS011;33718;50.910;-1.514;2022-09-03T07:12:02;20.33;;;14.38;;
47958;SDS011;33718;50.910;-1.514;2022-09-03T07:14:03;18.92;;;13.60;;
47958;SDS011;33718;50.910;-1.514;2022-09-03T07:16:06;18.05;;;14.15;;
47958;SDS011;33718;50.910;-1.514;2022-09-03T07:18:08;16.48;;;12.57;;
47958;SDS011;33718;50.910;-1.514;2022-09-03T07:20:10;19.67;;;13.80;;
47958;SDS011;33718;50.910;-1.514;2022-09-03T07:22:11;18.63;;;15.00;;
47958;SDS011;33718;50.910;-1.514;2022-09-03T07:24:13;19.60;;;15.05;;
47958;SDS011;33718;50.910;-1.514;2022-09-03T07:26:16;19.08;;;15.55;;
47958;SDS011;33718;50.910;-1.514;2022-09-03T07:28:20;19.85;;;15.15;;
47958;SDS011;33718;50.910;-1.514;2022-09-03T07:30:22;21.35;;;16.00;;
47958;SDS011;33718;50.910;-1.514;2022-09-03T07:32:23;19.90;;;15.43;;
47958;SDS011;33718;50.910;-1.514;2022-09-03T07:34:25;23.17;;;16.15;;
47958;SDS011;33718;50.910;-1.514;2022-09-03T07:36:28;17.58;;;15.35;;
47958;SDS011;33718;50.910;-1.514;2022-09-03T07:38:35;23.05;;;17.80;;
47958;SDS011;33718;50.910;-1.514;2022-09-03T07:40:37;19.17;;;16.23;;
47958;SDS011;33718;50.910;-1.514;2022-09-03T07:42:39;20.38;;;17.13;;
47958;SDS011;33718;50.910;-1.514;2022-09-03T07:44:41;19.08;;;16.10;;
47958;SDS011;33718;50.910;-1.514;2022-09-03T07:46:43;26.05;;;16.00;;
47958;SDS011;33718;50.910;-1.514;2022-09-03T07:48:46;17.97;;;15.37;;
47958;SDS011;33718;50.910;-1.514;2022-09-03T07:50:49;19.73;;;16.45;;
47958;SDS011;33718;50.910;-1.514;2022-09-03T07:52:57;20.45;;;16.17;;
47958;SDS011;33718;50.910;-1.514;2022-09-03T07:54:59;20.48;;;17.50;;
47958;SDS011;33718;50.910;-1.514;2022-09-03T07:57:01;20.95;;;17.05;;
47958;SDS011;33718;50.910;-1.514;2022-09-03T07:59:03;21.58;;;17.15;;
47958;SDS011;33718;50.910;-1.514;2022-09-03T08:01:05;20.25;;;15.50;;
47958;SDS011;33718;50.910;-1.514;2022-09-03T08:03:11;19.33;;;16.48;;
47958;SDS011;33718;50.910;-1.514;2022-09-03T08:05:13;17.48;;;15.50;;
47958;SDS011;33718;50.910;-1.514;2022-09-03T08:07:15;17.27;;;14.98;;
47958;SDS011;33718;50.910;-1.514;2022-09-03T08:09:17;16.75;;;14.75;;
47958;SDS011;33718;50.910;-1.514;2022-09-03T08:11:19;16.73;;;14.05;;
47958;SDS011;33718;50.910;-1.514;2022-09-03T08:13:21;19.02;;;14.38;;
47958;SDS011;33718;50.910;-1.514;2022-09-03T08:15:27;15.32;;;13.93;;
47958;SDS011;33718;50.910;-1.514;2022-09-03T08:17:28;21.30;;;15.35;;
47958;SDS011;33718;50.910;-1.514;2022-09-03T08:19:30;16.00;;;14.23;;
47958;SDS011;33718;50.910;-1.514;2022-09-03T08:21:32;16.25;;;14.52;;
47958;SDS011;33718;50.910;-1.514;2022-09-03T08:23:37;13.90;;;12.70;;
47958;SDS011;33718;50.910;-1.514;2022-09-03T08:25:38;14.77;;;13.35;;
47958;SDS011;33718;50.910;-1.514;2022-09-03T08:27:40;13.75;;;12.40;;
47958;SDS011;33718;50.910;-1.514;2022-09-03T08:29:42;15.98;;;12.88;;
47958;SDS011;33718;50.910;-1.514;2022-09-03T08:31:47;12.68;;;11.43;;
47958;SDS011;33718;50.910;-1.514;2022-09-03T08:33:52;11.15;;;8.85;;
47958;SDS011;33718;50.910;-1.514;2022-09-03T08:35:54;12.20;;;11.10;;
47958;SDS011;33718;50.910;-1.514;2022-09-03T08:37:55;12.57;;;11.35;;
47958;SDS011;33718;50.910;-1.514;2022-09-03T08:39:57;14.77;;;12.68;;
47958;SDS011;33718;50.910;-1.514;2022-09-03T08:44:24;8.00;;;6.75;;
47958;SDS011;33718;50.910;-1.514;2022-09-03T08:48:48;8.07;;;5.15;;
47958;SDS011;33718;50.910;-1.514;2022-09-03T08:50:50;6.70;;;5.93;;
47958;SDS011;33718;50.910;-1.514;2022-09-03T08:52:57;7.20;;;6.35;;
47958;SDS011;33718;50.910;-1.514;2022-09-03T08:57:06;7.32;;;6.60;;
47958;SDS011;33718;50.910;-1.514;2022-09-03T08:59:08;6.13;;;5.57;;
47958;SDS011;33718;50.910;-1.514;2022-09-03T09:05:45;5.95;;;5.03;;
47958;SDS011;33718;50.910;-1.514;2022-09-03T09:07:52;5.57;;;5.18;;
47958;SDS011;33718;50.910;-1.514;2022-09-03T09:16:27;6.18;;;5.63;;
47958;SDS011;33718;50.910;-1.514;2022-09-03T09:20:46;7.07;;;4.70;;
47958;SDS011;33718;50.910;-1.514;2022-09-03T09:23:00;5.63;;;4.93;;
47958;SDS011;33718;50.910;-1.514;2022-09-03T09:25:08;4.70;;;4.30;;
47958;SDS011;33718;50.910;-1.514;2022-09-03T09:27:15;4.95;;;4.45;;
47958;SDS011;33718;50.910;-1.514;2022-09-03T09:29:19;5.03;;;4.53;;
47958;SDS011;33718;50.910;-1.514;2022-09-03T09:31:21;6.97;;;4.78;;
47958;SDS011;33718;50.910;-1.514;2022-09-03T09:33:23;13.77;;;5.25;;
47958;SDS011;33718;50.910;-1.514;2022-09-03T09:35:25;5.28;;;4.78;;
47958;SDS011;33718;50.910;-1.514;2022-09-03T09:37:27;5.53;;;4.93;;
47958;SDS011;33718;50.910;-1.514;2022-09-03T09:39:29;9.23;;;6.90;;
47958;SDS011;33718;50.910;-1.514;2022-09-03T09:41:32;6.15;;;5.55;;
47958;SDS011;33718;50.910;-1.514;2022-09-03T09:43:33;5.97;;;5.43;;
47958;SDS011;33718;50.910;-1.514;2022-09-03T09:45:36;7.20;;;5.57;;
47958;SDS011;33718;50.910;-1.514;2022-09-03T09:47:40;4.82;;;4.15;;
47958;SDS011;33718;50.910;-1.514;2022-09-03T09:49:50;11.68;;;5.35;;
47958;SDS011;33718;50.910;-1.514;2022-09-03T09:52:00;5.95;;;5.35;;
47958;SDS011;33718;50.910;-1.514;2022-09-03T09:54:17;5.75;;;4.43;;
47958;SDS011;33718;50.910;-1.514;2022-09-03T09:56:23;5.63;;;5.05;;
47958;SDS011;33718;50.910;-1.514;2022-09-03T09:58:27;5.70;;;4.97;;
47958;SDS011;33718;50.910;-1.514;2022-09-03T10:00:33;7.32;;;4.72;;
47958;SDS011;33718;50.910;-1.514;2022-09-03T10:02:39;6.15;;;4.90;;
47958;SDS011;33718;50.910;-1.514;2022-09-03T10:04:49;4.85;;;4.30;;
47958;SDS011;33718;50.910;-1.514;2022-09-03T10:06:53;4.22;;;3.80;;
47958;SDS011;33718;50.910;-1.514;2022-09-03T10:09:06;7.63;;;4.07;;
47958;SDS011;33718;50.910;-1.514;2022-09-03T10:11:10;6.78;;;4.28;;
47958;SDS011;33718;50.910;-1.514;2022-09-03T10:17:48;7.07;;;4.47;;
47958;SDS011;33718;50.910;-1.514;2022-09-03T10:22:18;7.35;;;4.45;;
47958;SDS011;33718;50.910;-1.514;2022-09-03T10:26:41;5.50;;;4.07;;
47958;SDS011;33718;50.910;-1.514;2022-09-03T10:28:47;5.55;;;4.32;;
47958;SDS011;33718;50.910;-1.514;2022-09-03T10:33:15;7.40;;;5.47;;
47958;SDS011;33718;50.910;-1.514;2022-09-03T10:35:22;5.05;;;4.57;;
47958;SDS011;33718;50.910;-1.514;2022-09-03T10:44:30;8.93;;;7.05;;
47958;SDS011;33718;50.910;-1.514;2022-09-03T10:46:40;13.82;;;7.13;;
47958;SDS011;33718;50.910;-1.514;2022-09-03T10:51:15;13.03;;;8.27;;
47958;SDS011;33718;50.910;-1.514;2022-09-03T10:55:44;12.23;;;7.75;;
47958;SDS011;33718;50.910;-1.514;2022-09-03T10:57:50;11.35;;;6.80;;
47958;SDS011;33718;50.910;-1.514;2022-09-03T11:06:45;7.72;;;6.03;;
47958;SDS011;33718;50.910;-1.514;2022-09-03T11:08:57;11.20;;;6.68;;
47958;SDS011;33718;50.910;-1.514;2022-09-03T11:11:17;10.00;;;6.60;;
47958;SDS011;33718;50.910;-1.514;2022-09-03T11:13:21;12.85;;;6.18;;
47958;SDS011;33718;50.910;-1.514;2022-09-03T11:17:37;9.10;;;6.28;;
47958;SDS011;33718;50.910;-1.514;2022-09-03T11:19:42;9.02;;;6.50;;
47958;SDS011;33718;50.910;-1.514;2022-09-03T11:21:47;7.60;;;5.30;;
47958;SDS011;33718;50.910;-1.514;2022-09-03T11:24:32;10.15;;;5.82;;
47958;SDS011;33718;50.910;-1.514;2022-09-03T11:26:16;10.93;;;4.95;;
47958;SDS011;33718;50.910;-1.514;2022-09-03T11:30:26;15.90;;;5.75;;
47958;SDS011;33718;50.910;-1.514;2022-09-03T11:34:44;7.47;;;5.45;;
47958;SDS011;33718;50.910;-1.514;2022-09-03T11:36:47;10.43;;;5.03;;
47958;SDS011;33718;50.910;-1.514;2022-09-03T11:38:49;12.07;;;6.05;;
47958;SDS011;33718;50.910;-1.514;2022-09-03T11:41:02;8.65;;;6.55;;
47958;SDS011;33718;50.910;-1.514;2022-09-03T11:47:36;7.10;;;5.95;;
47958;SDS011;33718;50.910;-1.514;2022-09-03T11:49:42;9.68;;;6.38;;
47958;SDS011;33718;50.910;-1.514;2022-09-03T11:51:54;10.27;;;7.43;;
47958;SDS011;33718;50.910;-1.514;2022-09-03T11:54:00;10.55;;;6.25;;
47958;SDS011;33718;50.910;-1.514;2022-09-03T11:58:11;7.00;;;6.07;;
47958;SDS011;33718;50.910;-1.514;2022-09-03T12:00:14;9.27;;;6.75;;
47958;SDS011;33718;50.910;-1.514;2022-09-03T12:04:44;16.73;;;6.57;;
47958;SDS011;33718;50.910;-1.514;2022-09-03T12:08:59;12.75;;;6.82;;
47958;SDS011;33718;50.910;-1.514;2022-09-03T12:18:01;11.85;;;6.35;;
47958;SDS011;33718;50.910;-1.514;2022-09-03T12:20:26;6.88;;;5.93;;
47958;SDS011;33718;50.910;-1.514;2022-09-03T12:22:28;8.50;;;5.72;;
47958;SDS011;33718;50.910;-1.514;2022-09-03T12:24:31;9.23;;;7.05;;
47958;SDS011;33718;50.910;-1.514;2022-09-03T12:26:39;11.15;;;5.65;;
47958;SDS011;33718;50.910;-1.514;2022-09-03T12:28:44;11.23;;;5.97;;
47958;SDS011;33718;50.910;-1.514;2022-09-03T12:30:46;6.00;;;4.32;;
47958;SDS011;33718;50.910;-1.514;2022-09-03T12:32:48;10.38;;;6.10;;
47958;SDS011;33718;50.910;-1.514;2022-09-03T12:34:52;13.32;;;6.07;;
47958;SDS011;33718;50.910;-1.514;2022-09-03T12:36:53;8.80;;;5.72;;
47958;SDS011;33718;50.910;-1.514;2022-09-03T12:38:55;10.88;;;5.88;;
47958;SDS011;33718;50.910;-1.514;2022-09-03T12:41:20;10.52;;;5.55;;
47958;SDS011;33718;50.910;-1.514;2022-09-03T12:43:27;7.57;;;5.07;;
47958;SDS011;33718;50.910;-1.514;2022-09-03T12:45:48;8.35;;;5.78;;
47958;SDS011;33718;50.910;-1.514;2022-09-03T12:48:12;7.75;;;4.88;;
47958;SDS011;33718;50.910;-1.514;2022-09-03T12:50:19;7.13;;;5.43;;
47958;SDS011;33718;50.910;-1.514;2022-09-03T12:52:32;6.90;;;4.68;;
47958;SDS011;33718;50.910;-1.514;2022-09-03T12:54:37;7.82;;;5.28;;
47958;SDS011;33718;50.910;-1.514;2022-09-03T12:56:43;8.40;;;6.13;;
47958;SDS011;33718;50.910;-1.514;2022-09-03T12:58:53;13.90;;;5.50;;
47958;SDS011;33718;50.910;-1.514;2022-09-03T13:01:08;8.60;;;5.07;;
47958;SDS011;33718;50.910;-1.514;2022-09-03T13:03:27;8.32;;;4.80;;
47958;SDS011;33718;50.910;-1.514;2022-09-03T13:05:42;7.30;;;5.03;;
47958;SDS011;33718;50.910;-1.514;2022-09-03T13:07:52;10.55;;;5.43;;
47958;SDS011;33718;50.910;-1.514;2022-09-03T13:10:05;13.23;;;4.75;;
47958;SDS011;33718;50.910;-1.514;2022-09-03T13:12:27;12.57;;;6.40;;
47958;SDS011;33718;50.910;-1.514;2022-09-03T13:14:42;10.18;;;6.07;;
47958;SDS011;33718;50.910;-1.514;2022-09-03T13:21:38;10.07;;;5.78;;
47958;SDS011;33718;50.910;-1.514;2022-09-03T13:30:41;6.38;;;5.75;;
47958;SDS011;33718;50.910;-1.514;2022-09-03T13:43:56;11.55;;;6.38;;
47958;SDS011;33718;50.910;-1.514;2022-09-03T13:46:06;11.10;;;6.38;;
47958;SDS011;33718;50.910;-1.514;2022-09-03T13:48:12;14.65;;;6.63;;
47958;SDS011;33718;50.910;-1.514;2022-09-03T13:50:38;12.57;;;7.15;;
47958;SDS011;33718;50.910;-1.514;2022-09-03T13:55:01;13.27;;;7.40;;
47958;SDS011;33718;50.910;-1.514;2022-09-03T13:57:21;12.40;;;6.65;;
47958;SDS011;33718;50.910;-1.514;2022-09-03T13:59:27;16.67;;;7.15;;
47958;SDS011;33718;50.910;-1.514;2022-09-03T14:08:04;6.75;;;5.50;;
47958;SDS011;33718;50.910;-1.514;2022-09-03T14:17:41;7.95;;;4.78;;
47958;SDS011;33718;50.910;-1.514;2022-09-03T14:19:26;9.93;;;5.20;;
47958;SDS011;33718;50.910;-1.514;2022-09-03T14:21:34;10.38;;;5.93;;
47958;SDS011;33718;50.910;-1.514;2022-09-03T14:23:47;11.50;;;6.25;;
47958;SDS011;33718;50.910;-1.514;2022-09-03T14:25:56;6.97;;;3.00;;
47958;SDS011;33718;50.910;-1.514;2022-09-03T14:28:12;10.60;;;3.58;;
47958;SDS011;33718;50.910;-1.514;2022-09-03T14:36:44;7.80;;;3.78;;
47958;SDS011;33718;50.910;-1.514;2022-09-03T14:41:05;8.38;;;3.90;;
47958;SDS011;33718;50.910;-1.514;2022-09-03T14:45:24;7.43;;;4.00;;
47958;SDS011;33718;50.910;-1.514;2022-09-03T14:49:49;8.25;;;3.65;;
47958;SDS011;33718;50.910;-1.514;2022-09-03T14:56:27;6.53;;;3.72;;
47958;SDS011;33718;50.910;-1.514;2022-09-03T15:00:33;8.35;;;4.10;;
47958;SDS011;33718;50.910;-1.514;2022-09-03T15:04:54;10.32;;;4.15;;
47958;SDS011;33718;50.910;-1.514;2022-09-03T15:11:31;11.13;;;4.13;;
47958;SDS011;33718;50.910;-1.514;2022-09-03T15:18:24;7.10;;;4.53;;
47958;SDS011;33718;50.910;-1.514;2022-09-03T15:24:56;10.45;;;4.55;;
47958;SDS011;33718;50.910;-1.514;2022-09-03T15:33:22;7.15;;;3.80;;
47958;SDS011;33718;50.910;-1.514;2022-09-03T15:37:43;8.88;;;3.33;;
47958;SDS011;33718;50.910;-1.514;2022-09-03T15:39:46;8.70;;;3.42;;
47958;SDS011;33718;50.910;-1.514;2022-09-03T15:41:59;6.90;;;3.30;;